sensor_id;sensor_type;location;lat;lon;timestamp;P1;durP1;ratioP1;P2;durP2;ratioP2
75698;SDS011;64313;51.018;13.742;2023-11-18T00:01:02;4.30;;;1.90;;
75698;SDS011;64313;51.018;13.742;2023-11-18T00:05:53;3.90;;;1.70;;
75698;SDS011;64313;51.018;13.742;2023-11-18T00:08:19;4.13;;;1.70;;
75698;SDS011;64313;51.018;13.742;2023-11-18T00:10:44;4.40;;;1.98;;
75698;SDS011;64313;51.018;13.742;2023-11-18T00:15:35;4.88;;;1.85;;
75698;SDS011;64313;51.018;13.742;2023-11-18T00:20:26;3.72;;;1.42;;
75698;SDS011;64313;51.018;13.742;2023-11-18T00:25:18;3.53;;;1.50;;
75698;SDS011;64313;51.018;13.742;2023-11-18T00:30:08;3.27;;;1.40;;
75698;SDS011;64313;51.018;13.742;2023-11-18T00:32:36;3.85;;;1.35;;
75698;SDS011;64313;51.018;13.742;2023-11-18T00:35:02;4.43;;;1.60;;
75698;SDS011;64313;51.018;13.742;2023-11-18T00:37:29;5.82;;;1.80;;
75698;SDS011;64313;51.018;13.742;2023-11-18T00:39:56;4.13;;;1.73;;
75698;SDS011;64313;51.018;13.742;2023-11-18T00:44:47;5.45;;;1.80;;
75698;SDS011;64313;51.018;13.742;2023-11-18T00:49:38;4.35;;;1.95;;
75698;SDS011;64313;51.018;13.742;2023-11-18T00:54:28;4.80;;;2.40;;
75698;SDS011;64313;51.018;13.742;2023-11-18T00:56:54;5.63;;;2.28;;
75698;SDS011;64313;51.018;13.742;2023-11-18T01:01:45;5.55;;;2.55;;
75698;SDS011;64313;51.018;13.742;2023-11-18T01:04:10;5.38;;;2.60;;
75698;SDS011;64313;51.018;13.742;2023-11-18T01:06:36;5.15;;;2.50;;
75698;SDS011;64313;51.018;13.742;2023-11-18T01:09:01;5.63;;;2.50;;
75698;SDS011;64313;51.018;13.742;2023-11-18T01:13:52;5.90;;;2.40;;
75698;SDS011;64313;51.018;13.742;2023-11-18T01:16:19;4.95;;;2.50;;
75698;SDS011;64313;51.018;13.742;2023-11-18T01:21:11;4.20;;;1.65;;
75698;SDS011;64313;51.018;13.742;2023-11-18T01:26:05;4.93;;;2.20;;
75698;SDS011;64313;51.018;13.742;2023-11-18T01:28:33;5.32;;;2.20;;
75698;SDS011;64313;51.018;13.742;2023-11-18T01:31:03;4.55;;;2.00;;
75698;SDS011;64313;51.018;13.742;2023-11-18T01:33:29;3.95;;;1.65;;
75698;SDS011;64313;51.018;13.742;2023-11-18T01:38:20;4.70;;;1.90;;
75698;SDS011;64313;51.018;13.742;2023-11-18T01:43:11;4.53;;;1.80;;
75698;SDS011;64313;51.018;13.742;2023-11-18T01:45:39;4.85;;;1.88;;
75698;SDS011;64313;51.018;13.742;2023-11-18T01:48:05;4.43;;;1.70;;
75698;SDS011;64313;51.018;13.742;2023-11-18T01:50:32;4.53;;;1.85;;
75698;SDS011;64313;51.018;13.742;2023-11-18T01:52:58;5.38;;;1.88;;
75698;SDS011;64313;51.018;13.742;2023-11-18T01:55:26;5.05;;;1.70;;
75698;SDS011;64313;51.018;13.742;2023-11-18T01:57:52;4.40;;;1.60;;
75698;SDS011;64313;51.018;13.742;2023-11-18T02:02:43;4.65;;;1.80;;
75698;SDS011;64313;51.018;13.742;2023-11-18T02:07:37;3.95;;;1.50;;
75698;SDS011;64313;51.018;13.742;2023-11-18T02:12:37;3.53;;;1.42;;
75698;SDS011;64313;51.018;13.742;2023-11-18T02:15:09;4.03;;;1.65;;
75698;SDS011;64313;51.018;13.742;2023-11-18T02:17:38;5.22;;;1.90;;
75698;SDS011;64313;51.018;13.742;2023-11-18T02:20:04;5.72;;;2.03;;
75698;SDS011;64313;51.018;13.742;2023-11-18T02:22:45;4.65;;;1.98;;
75698;SDS011;64313;51.018;13.742;2023-11-18T02:25:17;4.40;;;1.67;;
75698;SDS011;64313;51.018;13.742;2023-11-18T02:27:43;4.93;;;2.05;;
75698;SDS011;64313;51.018;13.742;2023-11-18T02:30:11;5.15;;;1.75;;
75698;SDS011;64313;51.018;13.742;2023-11-18T02:32:45;4.97;;;1.80;;
75698;SDS011;64313;51.018;13.742;2023-11-18T02:35:23;5.38;;;2.00;;
75698;SDS011;64313;51.018;13.742;2023-11-18T02:37:52;5.03;;;2.00;;
75698;SDS011;64313;51.018;13.742;2023-11-18T02:40:22;4.97;;;2.22;;
75698;SDS011;64313;51.018;13.742;2023-11-18T02:42:55;5.70;;;2.50;;
75698;SDS011;64313;51.018;13.742;2023-11-18T02:45:24;4.80;;;1.90;;
75698;SDS011;64313;51.018;13.742;2023-11-18T02:47:49;4.90;;;2.13;;
75698;SDS011;64313;51.018;13.742;2023-11-18T02:52:40;5.40;;;2.33;;
75698;SDS011;64313;51.018;13.742;2023-11-18T02:57:35;4.80;;;2.10;;
75698;SDS011;64313;51.018;13.742;2023-11-18T03:00:01;4.93;;;2.20;;
75698;SDS011;64313;51.018;13.742;2023-11-18T03:02:29;6.68;;;2.40;;
75698;SDS011;64313;51.018;13.742;2023-11-18T03:04:58;5.07;;;2.25;;
75698;SDS011;64313;51.018;13.742;2023-11-18T03:09:49;6.05;;;2.58;;
75698;SDS011;64313;51.018;13.742;2023-11-18T03:14:39;5.38;;;2.30;;
75698;SDS011;64313;51.018;13.742;2023-11-18T03:17:05;4.82;;;2.13;;
75698;SDS011;64313;51.018;13.742;2023-11-18T03:19:35;5.10;;;2.05;;
75698;SDS011;64313;51.018;13.742;2023-11-18T03:22:01;5.22;;;1.80;;
75698;SDS011;64313;51.018;13.742;2023-11-18T03:24:27;7.35;;;2.50;;
75698;SDS011;64313;51.018;13.742;2023-11-18T03:29:19;4.53;;;1.92;;
75698;SDS011;64313;51.018;13.742;2023-11-18T03:34:13;5.78;;;2.05;;
75698;SDS011;64313;51.018;13.742;2023-11-18T03:39:04;5.63;;;2.37;;
75698;SDS011;64313;51.018;13.742;2023-11-18T03:41:31;5.60;;;2.33;;
75698;SDS011;64313;51.018;13.742;2023-11-18T03:46:21;5.30;;;2.10;;
75698;SDS011;64313;51.018;13.742;2023-11-18T03:51:13;5.40;;;2.30;;
75698;SDS011;64313;51.018;13.742;2023-11-18T03:53:39;6.25;;;2.47;;
75698;SDS011;64313;51.018;13.742;2023-11-18T03:58:30;5.40;;;2.50;;
75698;SDS011;64313;51.018;13.742;2023-11-18T04:00:57;5.95;;;2.60;;
75698;SDS011;64313;51.018;13.742;2023-11-18T04:05:48;5.35;;;2.40;;
75698;SDS011;64313;51.018;13.742;2023-11-18T04:10:39;6.35;;;2.50;;
75698;SDS011;64313;51.018;13.742;2023-11-18T04:15:29;6.53;;;2.40;;
75698;SDS011;64313;51.018;13.742;2023-11-18T04:20:20;5.30;;;2.40;;
75698;SDS011;64313;51.018;13.742;2023-11-18T04:22:45;5.43;;;2.45;;
75698;SDS011;64313;51.018;13.742;2023-11-18T04:25:11;5.95;;;2.50;;
75698;SDS011;64313;51.018;13.742;2023-11-18T04:27:37;5.68;;;2.35;;
75698;SDS011;64313;51.018;13.742;2023-11-18T04:30:04;6.88;;;2.47;;
75698;SDS011;64313;51.018;13.742;2023-11-18T04:32:30;6.40;;;2.58;;
75698;SDS011;64313;51.018;13.742;2023-11-18T04:34:58;5.20;;;2.20;;
75698;SDS011;64313;51.018;13.742;2023-11-18T04:37:24;6.43;;;2.58;;
75698;SDS011;64313;51.018;13.742;2023-11-18T04:42:15;5.93;;;2.40;;
75698;SDS011;64313;51.018;13.742;2023-11-18T04:44:41;5.40;;;2.30;;
75698;SDS011;64313;51.018;13.742;2023-11-18T04:47:06;5.97;;;2.42;;
75698;SDS011;64313;51.018;13.742;2023-11-18T04:51:57;5.87;;;2.37;;
75698;SDS011;64313;51.018;13.742;2023-11-18T04:54:24;6.60;;;2.65;;
75698;SDS011;64313;51.018;13.742;2023-11-18T04:59:14;5.70;;;1.95;;
75698;SDS011;64313;51.018;13.742;2023-11-18T05:04:05;6.10;;;2.50;;
75698;SDS011;64313;51.018;13.742;2023-11-18T05:06:33;5.93;;;2.53;;
75698;SDS011;64313;51.018;13.742;2023-11-18T05:11:24;4.73;;;2.00;;
75698;SDS011;64313;51.018;13.742;2023-11-18T05:16:14;5.43;;;2.33;;
75698;SDS011;64313;51.018;13.742;2023-11-18T05:21:06;5.88;;;2.38;;
75698;SDS011;64313;51.018;13.742;2023-11-18T05:25:58;5.75;;;2.50;;
75698;SDS011;64313;51.018;13.742;2023-11-18T05:30:49;6.00;;;2.60;;
75698;SDS011;64313;51.018;13.742;2023-11-18T05:33:15;7.30;;;2.22;;
75698;SDS011;64313;51.018;13.742;2023-11-18T05:35:43;5.95;;;2.25;;
75698;SDS011;64313;51.018;13.742;2023-11-18T05:38:15;6.60;;;2.65;;
75698;SDS011;64313;51.018;13.742;2023-11-18T05:40:43;6.53;;;2.45;;
75698;SDS011;64313;51.018;13.742;2023-11-18T05:43:19;6.60;;;2.90;;
75698;SDS011;64313;51.018;13.742;2023-11-18T05:45:46;6.10;;;2.55;;
75698;SDS011;64313;51.018;13.742;2023-11-18T05:48:31;6.28;;;2.70;;
75698;SDS011;64313;51.018;13.742;2023-11-18T05:53:22;6.23;;;3.00;;
75698;SDS011;64313;51.018;13.742;2023-11-18T05:58:12;6.43;;;2.87;;
75698;SDS011;64313;51.018;13.742;2023-11-18T06:03:03;5.97;;;2.60;;
75698;SDS011;64313;51.018;13.742;2023-11-18T06:05:29;6.63;;;2.83;;
75698;SDS011;64313;51.018;13.742;2023-11-18T06:07:56;5.30;;;2.60;;
75698;SDS011;64313;51.018;13.742;2023-11-18T06:10:24;5.50;;;2.63;;
75698;SDS011;64313;51.018;13.742;2023-11-18T06:15:15;7.20;;;2.88;;
75698;SDS011;64313;51.018;13.742;2023-11-18T06:17:43;6.15;;;2.55;;
75698;SDS011;64313;51.018;13.742;2023-11-18T06:22:35;6.57;;;2.83;;
75698;SDS011;64313;51.018;13.742;2023-11-18T06:25:01;6.40;;;2.97;;
75698;SDS011;64313;51.018;13.742;2023-11-18T06:27:27;8.07;;;3.22;;
75698;SDS011;64313;51.018;13.742;2023-11-18T06:32:19;6.72;;;3.13;;
75698;SDS011;64313;51.018;13.742;2023-11-18T06:37:10;5.83;;;2.53;;
75698;SDS011;64313;51.018;13.742;2023-11-18T06:39:40;6.97;;;2.85;;
75698;SDS011;64313;51.018;13.742;2023-11-18T06:42:09;7.03;;;2.88;;
75698;SDS011;64313;51.018;13.742;2023-11-18T06:44:36;5.95;;;2.70;;
75698;SDS011;64313;51.018;13.742;2023-11-18T06:47:02;6.80;;;3.00;;
75698;SDS011;64313;51.018;13.742;2023-11-18T06:49:30;7.30;;;2.88;;
75698;SDS011;64313;51.018;13.742;2023-11-18T06:51:59;5.55;;;2.67;;
75698;SDS011;64313;51.018;13.742;2023-11-18T06:54:28;6.40;;;3.03;;
75698;SDS011;64313;51.018;13.742;2023-11-18T06:59:19;6.20;;;3.00;;
75698;SDS011;64313;51.018;13.742;2023-11-18T07:04:09;7.27;;;3.30;;
75698;SDS011;64313;51.018;13.742;2023-11-18T07:06:35;7.40;;;3.70;;
75698;SDS011;64313;51.018;13.742;2023-11-18T07:09:03;7.28;;;3.40;;
75698;SDS011;64313;51.018;13.742;2023-11-18T07:11:34;6.63;;;2.80;;
75698;SDS011;64313;51.018;13.742;2023-11-18T07:14:00;6.28;;;2.90;;
75698;SDS011;64313;51.018;13.742;2023-11-18T07:18:51;11.48;;;4.20;;
75698;SDS011;64313;51.018;13.742;2023-11-18T07:23:42;10.27;;;3.60;;
75698;SDS011;64313;51.018;13.742;2023-11-18T07:28:35;6.47;;;3.30;;
75698;SDS011;64313;51.018;13.742;2023-11-18T07:31:01;7.97;;;3.03;;
75698;SDS011;64313;51.018;13.742;2023-11-18T07:33:29;7.15;;;3.08;;
75698;SDS011;64313;51.018;13.742;2023-11-18T07:35:57;7.60;;;3.50;;
75698;SDS011;64313;51.018;13.742;2023-11-18T07:40:48;8.02;;;3.03;;
75698;SDS011;64313;51.018;13.742;2023-11-18T07:45:40;6.63;;;2.90;;
75698;SDS011;64313;51.018;13.742;2023-11-18T07:48:07;7.22;;;3.20;;
75698;SDS011;64313;51.018;13.742;2023-11-18T07:50:34;6.43;;;3.05;;
75698;SDS011;64313;51.018;13.742;2023-11-18T07:53:00;6.88;;;3.10;;
75698;SDS011;64313;51.018;13.742;2023-11-18T07:57:51;7.37;;;2.97;;
75698;SDS011;64313;51.018;13.742;2023-11-18T08:02:42;6.55;;;2.95;;
75698;SDS011;64313;51.018;13.742;2023-11-18T08:05:09;6.20;;;3.03;;
75698;SDS011;64313;51.018;13.742;2023-11-18T08:07:38;6.60;;;3.30;;
75698;SDS011;64313;51.018;13.742;2023-11-18T08:10:05;6.25;;;3.15;;
75698;SDS011;64313;51.018;13.742;2023-11-18T08:12:31;6.90;;;3.28;;
75698;SDS011;64313;51.018;13.742;2023-11-18T08:14:57;6.65;;;3.35;;
75698;SDS011;64313;51.018;13.742;2023-11-18T08:17:25;7.10;;;3.38;;
75698;SDS011;64313;51.018;13.742;2023-11-18T08:19:51;7.75;;;2.97;;
75698;SDS011;64313;51.018;13.742;2023-11-18T08:22:17;7.50;;;3.53;;
75698;SDS011;64313;51.018;13.742;2023-11-18T08:24:44;7.63;;;3.60;;
75698;SDS011;64313;51.018;13.742;2023-11-18T08:27:10;8.55;;;3.33;;
75698;SDS011;64313;51.018;13.742;2023-11-18T08:29:36;7.10;;;3.42;;
75698;SDS011;64313;51.018;13.742;2023-11-18T08:32:03;7.13;;;3.13;;
75698;SDS011;64313;51.018;13.742;2023-11-18T08:34:29;7.22;;;3.53;;
75698;SDS011;64313;51.018;13.742;2023-11-18T08:36:54;7.28;;;3.53;;
75698;SDS011;64313;51.018;13.742;2023-11-18T08:41:45;7.10;;;3.50;;
75698;SDS011;64313;51.018;13.742;2023-11-18T08:46:38;8.27;;;3.42;;
75698;SDS011;64313;51.018;13.742;2023-11-18T08:49:04;6.35;;;3.28;;
75698;SDS011;64313;51.018;13.742;2023-11-18T08:51:36;6.20;;;3.13;;
75698;SDS011;64313;51.018;13.742;2023-11-18T08:54:02;5.90;;;2.80;;
75698;SDS011;64313;51.018;13.742;2023-11-18T08:56:47;6.35;;;3.30;;
75698;SDS011;64313;51.018;13.742;2023-11-18T08:59:19;6.85;;;3.30;;
75698;SDS011;64313;51.018;13.742;2023-11-18T09:01:59;6.75;;;3.50;;
75698;SDS011;64313;51.018;13.742;2023-11-18T09:04:25;7.32;;;3.45;;
75698;SDS011;64313;51.018;13.742;2023-11-18T09:06:53;7.78;;;4.32;;
75698;SDS011;64313;51.018;13.742;2023-11-18T09:09:22;7.55;;;4.28;;
75698;SDS011;64313;51.018;13.742;2023-11-18T09:11:54;8.88;;;4.15;;
75698;SDS011;64313;51.018;13.742;2023-11-18T09:14:21;9.77;;;4.13;;
75698;SDS011;64313;51.018;13.742;2023-11-18T09:16:49;8.45;;;4.15;;
75698;SDS011;64313;51.018;13.742;2023-11-18T09:19:15;10.18;;;4.03;;
75698;SDS011;64313;51.018;13.742;2023-11-18T09:24:07;6.95;;;3.40;;
75698;SDS011;64313;51.018;13.742;2023-11-18T09:26:33;7.18;;;3.55;;
75698;SDS011;64313;51.018;13.742;2023-11-18T09:31:26;6.15;;;3.00;;
75698;SDS011;64313;51.018;13.742;2023-11-18T09:36:18;7.15;;;2.80;;
75698;SDS011;64313;51.018;13.742;2023-11-18T09:38:44;7.25;;;3.38;;
75698;SDS011;64313;51.018;13.742;2023-11-18T09:41:13;6.20;;;3.10;;
75698;SDS011;64313;51.018;13.742;2023-11-18T09:43:39;8.50;;;3.13;;
75698;SDS011;64313;51.018;13.742;2023-11-18T09:48:42;6.43;;;3.05;;
75698;SDS011;64313;51.018;13.742;2023-11-18T09:51:27;6.20;;;3.30;;
75698;SDS011;64313;51.018;13.742;2023-11-18T09:53:59;8.48;;;3.53;;
75698;SDS011;64313;51.018;13.742;2023-11-18T09:56:30;6.78;;;3.50;;
75698;SDS011;64313;51.018;13.742;2023-11-18T09:59:13;6.10;;;3.13;;
75698;SDS011;64313;51.018;13.742;2023-11-18T10:01:44;8.05;;;3.75;;
75698;SDS011;64313;51.018;13.742;2023-11-18T10:04:18;6.43;;;3.28;;
75698;SDS011;64313;51.018;13.742;2023-11-18T10:06:45;8.48;;;3.35;;
75698;SDS011;64313;51.018;13.742;2023-11-18T10:09:12;7.57;;;3.47;;
75698;SDS011;64313;51.018;13.742;2023-11-18T10:11:45;7.72;;;3.30;;
75698;SDS011;64313;51.018;13.742;2023-11-18T10:14:16;7.43;;;3.38;;
75698;SDS011;64313;51.018;13.742;2023-11-18T10:16:42;6.03;;;2.97;;
75698;SDS011;64313;51.018;13.742;2023-11-18T10:19:11;7.57;;;3.65;;
75698;SDS011;64313;51.018;13.742;2023-11-18T10:24:06;5.88;;;2.40;;
75698;SDS011;64313;51.018;13.742;2023-11-18T10:26:45;8.00;;;3.28;;
75698;SDS011;64313;51.018;13.742;2023-11-18T10:29:11;7.22;;;3.08;;
75698;SDS011;64313;51.018;13.742;2023-11-18T10:31:38;7.15;;;3.30;;
75698;SDS011;64313;51.018;13.742;2023-11-18T10:34:10;8.23;;;3.15;;
75698;SDS011;64313;51.018;13.742;2023-11-18T10:36:37;6.35;;;3.05;;
75698;SDS011;64313;51.018;13.742;2023-11-18T10:39:04;6.95;;;3.20;;
75698;SDS011;64313;51.018;13.742;2023-11-18T10:41:39;6.18;;;2.88;;
75698;SDS011;64313;51.018;13.742;2023-11-18T10:44:08;6.18;;;2.45;;
75698;SDS011;64313;51.018;13.742;2023-11-18T10:46:34;5.50;;;2.92;;
75698;SDS011;64313;51.018;13.742;2023-11-18T10:49:01;5.07;;;2.20;;
75698;SDS011;64313;51.018;13.742;2023-11-18T10:51:27;4.93;;;2.08;;
75698;SDS011;64313;51.018;13.742;2023-11-18T10:53:55;5.15;;;1.92;;
75698;SDS011;64313;51.018;13.742;2023-11-18T10:56:26;5.63;;;2.42;;
75698;SDS011;64313;51.018;13.742;2023-11-18T10:58:53;5.20;;;2.25;;
75698;SDS011;64313;51.018;13.742;2023-11-18T11:01:29;5.00;;;2.05;;
75698;SDS011;64313;51.018;13.742;2023-11-18T11:03:59;3.70;;;1.35;;
75698;SDS011;64313;51.018;13.742;2023-11-18T11:08:52;3.55;;;1.20;;
75698;SDS011;64313;51.018;13.742;2023-11-18T11:11:20;3.28;;;1.00;;
75698;SDS011;64313;51.018;13.742;2023-11-18T11:13:48;4.68;;;1.20;;
75698;SDS011;64313;51.018;13.742;2023-11-18T11:16:19;3.42;;;1.10;;
75698;SDS011;64313;51.018;13.742;2023-11-18T11:18:47;3.20;;;0.98;;
75698;SDS011;64313;51.018;13.742;2023-11-18T11:21:20;3.95;;;1.17;;
75698;SDS011;64313;51.018;13.742;2023-11-18T11:23:54;2.90;;;0.95;;
75698;SDS011;64313;51.018;13.742;2023-11-18T11:26:34;1.95;;;0.77;;
75698;SDS011;64313;51.018;13.742;2023-11-18T11:29:10;2.47;;;0.73;;
75698;SDS011;64313;51.018;13.742;2023-11-18T11:31:38;2.40;;;0.88;;
75698;SDS011;64313;51.018;13.742;2023-11-18T11:34:16;2.40;;;0.88;;
75698;SDS011;64313;51.018;13.742;2023-11-18T11:36:49;2.08;;;0.75;;
75698;SDS011;64313;51.018;13.742;2023-11-18T11:39:16;1.83;;;0.77;;
75698;SDS011;64313;51.018;13.742;2023-11-18T11:41:45;3.42;;;1.00;;
75698;SDS011;64313;51.018;13.742;2023-11-18T11:44:16;2.72;;;1.10;;
75698;SDS011;64313;51.018;13.742;2023-11-18T11:46:44;3.70;;;1.20;;
75698;SDS011;64313;51.018;13.742;2023-11-18T11:49:18;4.07;;;1.30;;
75698;SDS011;64313;51.018;13.742;2023-11-18T11:52:07;3.13;;;1.10;;
75698;SDS011;64313;51.018;13.742;2023-11-18T11:54:44;8.02;;;2.30;;
75698;SDS011;64313;51.018;13.742;2023-11-18T11:57:15;3.35;;;1.20;;
75698;SDS011;64313;51.018;13.742;2023-11-18T12:02:13;2.60;;;1.10;;
75698;SDS011;64313;51.018;13.742;2023-11-18T12:04:44;2.70;;;0.90;;
75698;SDS011;64313;51.018;13.742;2023-11-18T12:07:10;3.00;;;0.93;;
75698;SDS011;64313;51.018;13.742;2023-11-18T12:09:40;3.72;;;1.15;;
75698;SDS011;64313;51.018;13.742;2023-11-18T12:12:18;3.17;;;1.10;;
75698;SDS011;64313;51.018;13.742;2023-11-18T12:15:04;2.35;;;1.00;;
75698;SDS011;64313;51.018;13.742;2023-11-18T12:18:09;3.13;;;1.10;;
75698;SDS011;64313;51.018;13.742;2023-11-18T12:20:38;3.53;;;1.38;;
75698;SDS011;64313;51.018;13.742;2023-11-18T12:23:12;3.30;;;1.40;;
75698;SDS011;64313;51.018;13.742;2023-11-18T12:25:45;3.83;;;1.50;;
75698;SDS011;64313;51.018;13.742;2023-11-18T12:28:12;4.18;;;1.45;;
75698;SDS011;64313;51.018;13.742;2023-11-18T12:30:46;4.93;;;1.80;;
75698;SDS011;64313;51.018;13.742;2023-11-18T12:33:21;4.00;;;1.60;;
75698;SDS011;64313;51.018;13.742;2023-11-18T12:41:34;4.53;;;1.90;;
75698;SDS011;64313;51.018;13.742;2023-11-18T12:49:40;5.85;;;1.90;;
75698;SDS011;64313;51.018;13.742;2023-11-18T12:52:09;5.22;;;2.30;;
75698;SDS011;64313;51.018;13.742;2023-11-18T12:54:37;5.03;;;2.47;;
75698;SDS011;64313;51.018;13.742;2023-11-18T12:57:03;5.35;;;2.25;;
75698;SDS011;64313;51.018;13.742;2023-11-18T12:59:35;4.65;;;2.10;;
75698;SDS011;64313;51.018;13.742;2023-11-18T13:02:06;5.30;;;2.33;;
75698;SDS011;64313;51.018;13.742;2023-11-18T13:04:32;6.10;;;2.60;;
75698;SDS011;64313;51.018;13.742;2023-11-18T13:06:59;4.53;;;2.03;;
75698;SDS011;64313;51.018;13.742;2023-11-18T13:09:25;4.13;;;1.90;;
75698;SDS011;64313;51.018;13.742;2023-11-18T13:11:54;4.97;;;2.40;;
75698;SDS011;64313;51.018;13.742;2023-11-18T13:14:22;6.07;;;2.42;;
75698;SDS011;64313;51.018;13.742;2023-11-18T13:16:51;8.10;;;2.22;;
75698;SDS011;64313;51.018;13.742;2023-11-18T13:21:57;4.70;;;2.10;;
75698;SDS011;64313;51.018;13.742;2023-11-18T13:24:24;4.57;;;2.10;;
75698;SDS011;64313;51.018;13.742;2023-11-18T13:26:51;6.45;;;2.28;;
75698;SDS011;64313;51.018;13.742;2023-11-18T13:29:19;4.38;;;2.20;;
75698;SDS011;64313;51.018;13.742;2023-11-18T13:31:46;6.15;;;2.45;;
75698;SDS011;64313;51.018;13.742;2023-11-18T13:34:13;5.10;;;2.42;;
75698;SDS011;64313;51.018;13.742;2023-11-18T13:36:39;5.20;;;2.30;;
75698;SDS011;64313;51.018;13.742;2023-11-18T13:39:04;4.78;;;2.17;;
75698;SDS011;64313;51.018;13.742;2023-11-18T13:41:32;6.45;;;2.30;;
75698;SDS011;64313;51.018;13.742;2023-11-18T13:43:57;11.98;;;2.90;;
75698;SDS011;64313;51.018;13.742;2023-11-18T13:46:23;5.15;;;2.70;;
75698;SDS011;64313;51.018;13.742;2023-11-18T13:48:49;5.45;;;2.30;;
75698;SDS011;64313;51.018;13.742;2023-11-18T13:51:15;4.93;;;2.47;;
75698;SDS011;64313;51.018;13.742;2023-11-18T13:53:42;7.32;;;2.50;;
75698;SDS011;64313;51.018;13.742;2023-11-18T13:56:11;4.97;;;2.42;;
75698;SDS011;64313;51.018;13.742;2023-11-18T13:58:41;5.22;;;2.50;;
75698;SDS011;64313;51.018;13.742;2023-11-18T14:01:07;5.55;;;2.60;;
75698;SDS011;64313;51.018;13.742;2023-11-18T14:03:36;7.22;;;2.50;;
75698;SDS011;64313;51.018;13.742;2023-11-18T14:06:07;6.80;;;2.70;;
75698;SDS011;64313;51.018;13.742;2023-11-18T14:08:37;4.97;;;2.50;;
75698;SDS011;64313;51.018;13.742;2023-11-18T14:11:06;6.07;;;2.55;;
75698;SDS011;64313;51.018;13.742;2023-11-18T14:13:34;5.63;;;2.40;;
75698;SDS011;64313;51.018;13.742;2023-11-18T14:16:01;6.00;;;2.70;;
75698;SDS011;64313;51.018;13.742;2023-11-18T14:18:26;16.08;;;6.53;;
75698;SDS011;64313;51.018;13.742;2023-11-18T14:20:52;19.48;;;7.50;;
75698;SDS011;64313;51.018;13.742;2023-11-18T14:23:18;21.50;;;8.68;;
75698;SDS011;64313;51.018;13.742;2023-11-18T14:25:44;18.67;;;8.98;;
75698;SDS011;64313;51.018;13.742;2023-11-18T14:28:13;19.13;;;7.60;;
75698;SDS011;64313;51.018;13.742;2023-11-18T14:30:38;15.90;;;7.15;;
75698;SDS011;64313;51.018;13.742;2023-11-18T14:33:05;12.55;;;6.70;;
75698;SDS011;64313;51.018;13.742;2023-11-18T14:35:31;9.40;;;4.95;;
75698;SDS011;64313;51.018;13.742;2023-11-18T14:37:57;11.45;;;5.78;;
75698;SDS011;64313;51.018;13.742;2023-11-18T14:40:22;8.93;;;5.03;;
75698;SDS011;64313;51.018;13.742;2023-11-18T14:42:49;9.73;;;4.65;;
75698;SDS011;64313;51.018;13.742;2023-11-18T14:45:15;8.73;;;4.70;;
75698;SDS011;64313;51.018;13.742;2023-11-18T14:47:41;9.65;;;4.18;;
75698;SDS011;64313;51.018;13.742;2023-11-18T14:50:13;10.48;;;4.75;;
75698;SDS011;64313;51.018;13.742;2023-11-18T14:52:45;10.25;;;5.97;;
75698;SDS011;64313;51.018;13.742;2023-11-18T14:55:12;13.60;;;6.93;;
75698;SDS011;64313;51.018;13.742;2023-11-18T14:57:41;16.67;;;8.38;;
75698;SDS011;64313;51.018;13.742;2023-11-18T15:00:09;16.40;;;9.27;;
75698;SDS011;64313;51.018;13.742;2023-11-18T15:02:44;17.92;;;8.52;;
75698;SDS011;64313;51.018;13.742;2023-11-18T15:05:11;14.32;;;7.47;;
75698;SDS011;64313;51.018;13.742;2023-11-18T15:07:36;12.85;;;6.55;;
75698;SDS011;64313;51.018;13.742;2023-11-18T15:10:03;13.75;;;6.28;;
75698;SDS011;64313;51.018;13.742;2023-11-18T15:12:28;13.93;;;6.88;;
75698;SDS011;64313;51.018;13.742;2023-11-18T15:14:54;14.07;;;6.88;;
75698;SDS011;64313;51.018;13.742;2023-11-18T15:17:19;12.82;;;6.43;;
75698;SDS011;64313;51.018;13.742;2023-11-18T15:22:09;11.53;;;5.60;;
75698;SDS011;64313;51.018;13.742;2023-11-18T15:24:35;10.50;;;5.55;;
75698;SDS011;64313;51.018;13.742;2023-11-18T15:27:00;8.98;;;5.22;;
75698;SDS011;64313;51.018;13.742;2023-11-18T15:29:28;10.07;;;5.45;;
75698;SDS011;64313;51.018;13.742;2023-11-18T15:31:58;11.38;;;5.78;;
75698;SDS011;64313;51.018;13.742;2023-11-18T15:34:24;10.60;;;5.60;;
75698;SDS011;64313;51.018;13.742;2023-11-18T15:39:16;9.93;;;5.00;;
75698;SDS011;64313;51.018;13.742;2023-11-18T15:44:07;11.10;;;5.55;;
75698;SDS011;64313;51.018;13.742;2023-11-18T15:49:00;18.27;;;11.15;;
75698;SDS011;64313;51.018;13.742;2023-11-18T15:53:52;16.67;;;10.40;;
75698;SDS011;64313;51.018;13.742;2023-11-18T15:58:44;14.90;;;8.65;;
75698;SDS011;64313;51.018;13.742;2023-11-18T16:03:34;14.32;;;7.20;;
75698;SDS011;64313;51.018;13.742;2023-11-18T16:08:25;11.20;;;6.70;;
75698;SDS011;64313;51.018;13.742;2023-11-18T16:13:18;10.90;;;5.85;;
75698;SDS011;64313;51.018;13.742;2023-11-18T16:15:45;8.02;;;4.22;;
75698;SDS011;64313;51.018;13.742;2023-11-18T16:20:35;7.10;;;3.40;;
75698;SDS011;64313;51.018;13.742;2023-11-18T16:23:02;6.43;;;3.40;;
75698;SDS011;64313;51.018;13.742;2023-11-18T16:27:55;7.03;;;3.55;;
75698;SDS011;64313;51.018;13.742;2023-11-18T16:30:23;6.55;;;3.50;;
75698;SDS011;64313;51.018;13.742;2023-11-18T16:32:52;6.82;;;3.67;;
75698;SDS011;64313;51.018;13.742;2023-11-18T16:35:18;8.10;;;4.00;;
75698;SDS011;64313;51.018;13.742;2023-11-18T16:37:45;7.32;;;3.85;;
75698;SDS011;64313;51.018;13.742;2023-11-18T16:40:12;8.05;;;4.25;;
75698;SDS011;64313;51.018;13.742;2023-11-18T16:42:44;8.38;;;4.80;;
75698;SDS011;64313;51.018;13.742;2023-11-18T16:45:12;9.13;;;4.47;;
75698;SDS011;64313;51.018;13.742;2023-11-18T16:47:39;9.27;;;4.85;;
75698;SDS011;64313;51.018;13.742;2023-11-18T16:50:05;8.68;;;4.97;;
75698;SDS011;64313;51.018;13.742;2023-11-18T16:52:33;9.30;;;5.03;;
75698;SDS011;64313;51.018;13.742;2023-11-18T16:54:58;9.48;;;5.13;;
75698;SDS011;64313;51.018;13.742;2023-11-18T16:59:51;10.15;;;5.03;;
75698;SDS011;64313;51.018;13.742;2023-11-18T17:02:16;10.45;;;5.30;;
75698;SDS011;64313;51.018;13.742;2023-11-18T17:04:43;9.73;;;5.20;;
75698;SDS011;64313;51.018;13.742;2023-11-18T17:09:34;9.53;;;5.43;;
75698;SDS011;64313;51.018;13.742;2023-11-18T17:12:03;12.30;;;5.65;;
75698;SDS011;64313;51.018;13.742;2023-11-18T17:16:53;10.07;;;5.53;;
75698;SDS011;64313;51.018;13.742;2023-11-18T17:21:45;14.68;;;8.00;;
75698;SDS011;64313;51.018;13.742;2023-11-18T17:26:36;15.55;;;8.10;;
75698;SDS011;64313;51.018;13.742;2023-11-18T17:29:05;15.68;;;8.82;;
75698;SDS011;64313;51.018;13.742;2023-11-18T17:31:31;14.05;;;8.25;;
75698;SDS011;64313;51.018;13.742;2023-11-18T17:36:22;13.82;;;7.65;;
75698;SDS011;64313;51.018;13.742;2023-11-18T17:41:13;10.15;;;6.18;;
75698;SDS011;64313;51.018;13.742;2023-11-18T17:46:04;13.73;;;7.75;;
75698;SDS011;64313;51.018;13.742;2023-11-18T17:50:55;15.83;;;9.63;;
75698;SDS011;64313;51.018;13.742;2023-11-18T17:53:23;13.38;;;8.32;;
75698;SDS011;64313;51.018;13.742;2023-11-18T17:58:14;13.03;;;7.87;;
75698;SDS011;64313;51.018;13.742;2023-11-18T18:03:05;13.13;;;6.53;;
75698;SDS011;64313;51.018;13.742;2023-11-18T18:05:31;10.88;;;6.63;;
75698;SDS011;64313;51.018;13.742;2023-11-18T18:10:22;13.07;;;6.33;;
75698;SDS011;64313;51.018;13.742;2023-11-18T18:12:52;11.68;;;6.47;;
75698;SDS011;64313;51.018;13.742;2023-11-18T18:15:19;11.38;;;6.63;;
75698;SDS011;64313;51.018;13.742;2023-11-18T18:20:10;10.43;;;6.30;;
75698;SDS011;64313;51.018;13.742;2023-11-18T18:22:37;12.55;;;6.57;;
75698;SDS011;64313;51.018;13.742;2023-11-18T18:25:03;11.40;;;7.05;;
75698;SDS011;64313;51.018;13.742;2023-11-18T18:27:29;11.57;;;7.47;;